Time;durP1;ratioP1;P1;durP2;ratioP2;P2;SDS_P1;SDS_P2;PMS_P1;PMS_P2;Temp;Humidity;BMP_temperature;BMP_pressure;BME280_temperature;BME280_humidity;BME280_pressure;Samples;Min_cycle;Max_cycle;Signal;HPM_P1;HPM_P2
2023/06/19 02:06:34;;;;;;;7.75;2.40;;;;;;;;;;5033951;27;20374;-65
2023/06/19 02:09:00;;;;;;;8.30;1.98;;;;;;;;;;5017926;28;20052;-64
2023/06/19 02:11:26;;;;;;;5.28;2.40;;;;;;;;;;5036296;28;20052;-63
2023/06/19 02:13:53;;;;;;;5.63;2.10;;;;;;;;;;5011616;28;20050;-64
2023/06/19 02:16:19;;;;;;;5.90;2.42;;;;;;;;;;5024029;28;20076;-64
2023/06/19 02:18:46;;;;;;;4.47;2.17;;;;;;;;;;5019910;28;20164;-63
2023/06/19 02:21:12;;;;;;;5.65;2.38;;;;;;;;;;5022264;28;20127;-63
2023/06/19 02:23:40;;;;;;;4.53;2.13;;;;;;;;;;5036035;28;20051;-64
2023/06/19 02:26:06;;;;;;;9.47;2.10;;;;;;;;;;5025850;28;20060;-63
2023/06/19 02:28:33;;;;;;;5.78;2.15;;;;;;;;;;5031968;28;20054;-64
2023/06/19 02:30:59;;;;;;;4.05;2.10;;;;;;;;;;5019274;28;20068;-64
2023/06/19 02:33:25;;;;;;;4.80;2.35;;;;;;;;;;5018388;28;20053;-64
2023/06/19 02:35:52;;;;;;;4.32;1.90;;;;;;;;;;5033012;28;20121;-65
2023/06/19 02:38:21;;;;;;;8.13;1.95;;;;;;;;;;5023776;28;20328;-65
2023/06/19 02:40:49;;;;;;;3.67;1.95;;;;;;;;;;5035800;28;20065;-64
2023/06/19 02:43:15;;;;;;;4.68;1.95;;;;;;;;;;5032179;28;20111;-64
2023/06/19 02:45:42;;;;;;;3.85;1.73;;;;;;;;;;5030538;28;20065;-65
2023/06/19 02:48:08;;;;;;;3.78;1.77;;;;;;;;;;5026323;28;20067;-63
2023/06/19 02:50:35;;;;;;;4.22;1.80;;;;;;;;;;5030672;28;20119;-63
2023/06/19 02:53:01;;;;;;;4.80;2.08;;;;;;;;;;5033630;28;20065;-64
2023/06/19 02:55:28;;;;;;;3.75;1.92;;;;;;;;;;5025709;28;20061;-63
2023/06/19 02:57:55;;;;;;;3.90;1.70;;;;;;;;;;5035305;28;20057;-64
2023/06/19 03:00:22;;;;;;;3.75;1.85;;;;;;;;;;5020764;28;20053;-66
2023/06/19 03:02:50;;;;;;;4.18;1.98;;;;;;;;;;5036101;28;20144;-64
2023/06/19 03:05:17;;;;;;;5.30;1.70;;;;;;;;;;5026498;28;20100;-64
2023/06/19 03:07:43;;;;;;;3.97;1.83;;;;;;;;;;5035573;28;20115;-64
2023/06/19 03:10:10;;;;;;;3.47;1.83;;;;;;;;;;5017321;28;20051;-66
2023/06/19 03:12:36;;;;;;;5.38;2.05;;;;;;;;;;5031034;28;20144;-64
2023/06/19 03:15:04;;;;;;;3.42;1.60;;;;;;;;;;5021270;28;20045;-64
2023/06/19 03:17:31;;;;;;;3.50;2.00;;;;;;;;;;4995943;28;20118;-64
2023/06/19 03:19:57;;;;;;;4.80;1.90;;;;;;;;;;4993406;28;20150;-63
2023/06/19 03:22:24;;;;;;;3.65;1.70;;;;;;;;;;4990399;28;20058;-64
2023/06/19 03:24:50;;;;;;;3.45;1.55;;;;;;;;;;4995824;28;20081;-63
2023/06/19 03:27:17;;;;;;;2.42;1.42;;;;;;;;;;5001711;28;20069;-63
2023/06/19 03:29:43;;;;;;;3.70;1.90;;;;;;;;;;4993796;28;20043;-64
2023/06/19 03:32:11;;;;;;;6.00;1.52;;;;;;;;;;4991017;28;20088;-64
2023/06/19 03:34:37;;;;;;;4.47;1.80;;;;;;;;;;5002202;28;20060;-64
2023/06/19 03:37:04;;;;;;;3.28;1.80;;;;;;;;;;5017959;28;20061;-64
2023/06/19 03:39:30;;;;;;;5.88;2.22;;;;;;;;;;5018536;28;20137;-66
2023/06/19 03:41:57;;;;;;;4.15;1.65;;;;;;;;;;5017114;28;20064;-66
2023/06/19 03:44:23;;;;;;;4.18;1.88;;;;;;;;;;5011141;28;20148;-66
2023/06/19 03:46:51;;;;;;;5.10;1.88;;;;;;;;;;5017100;28;20062;-66
2023/06/19 03:49:19;;;;;;;3.35;1.50;;;;;;;;;;5018810;28;20050;-66
2023/06/19 03:51:45;;;;;;;3.45;1.52;;;;;;;;;;5015703;28;20142;-65
2023/06/19 03:54:11;;;;;;;3.50;1.58;;;;;;;;;;5010914;28;20061;-66
2023/06/19 03:56:38;;;;;;;3.95;2.00;;;;;;;;;;5013604;28;20049;-64
2023/06/19 03:59:05;;;;;;;5.47;1.60;;;;;;;;;;5019430;28;20065;-66
2023/06/19 04:01:31;;;;;;;3.55;1.55;;;;;;;;;;5017303;28;20049;-66
2023/06/19 04:03:59;;;;;;;6.25;2.03;;;;;;;;;;5019644;28;20129;-67
2023/06/19 04:06:26;;;;;;;4.80;1.63;;;;;;;;;;5010367;28;20072;-66
2023/06/19 04:08:53;;;;;;;3.67;1.92;;;;;;;;;;5014940;28;20056;-66
2023/06/19 04:11:20;;;;;;;6.53;1.88;;;;;;;;;;5020302;28;20057;-68
2023/06/19 04:13:46;;;;;;;3.85;1.77;;;;;;;;;;5012312;28;20116;-66
2023/06/19 04:16:13;;;;;;;5.30;1.70;;;;;;;;;;4993795;28;20046;-66
2023/06/19 04:18:39;;;;;;;3.17;1.52;;;;;;;;;;5002914;28;20061;-66
2023/06/19 04:21:06;;;;;;;2.80;1.70;;;;;;;;;;4998460;28;20140;-66
2023/06/19 04:23:35;;;;;;;6.20;2.15;;;;;;;;;;4995551;28;20125;-66
2023/06/19 04:26:02;;;;;;;3.88;1.90;;;;;;;;;;5010797;28;20053;-66
2023/06/19 04:28:28;;;;;;;3.92;1.83;;;;;;;;;;5009246;28;20144;-66
2023/06/19 04:30:59;;;;;;;3.42;1.80;;;;;;;;;;5003721;28;20052;-66
2023/06/19 04:33:26;;;;;;;3.17;1.77;;;;;;;;;;5004464;28;20057;-63
2023/06/19 04:35:52;;;;;;;5.15;1.80;;;;;;;;;;5003051;28;20141;-64
2023/06/19 04:38:19;;;;;;;4.07;1.95;;;;;;;;;;4988030;28;20137;-67
2023/06/19 04:40:46;;;;;;;17.02;2.38;;;;;;;;;;4999967;28;20058;-65
2023/06/19 04:43:13;;;;;;;4.82;2.20;;;;;;;;;;4995754;28;20053;-64
2023/06/19 04:45:39;;;;;;;3.72;1.70;;;;;;;;;;5008867;28;20049;-63
2023/06/19 04:48:06;;;;;;;6.45;2.05;;;;;;;;;;5005480;28;20058;-65
2023/06/19 04:50:33;;;;;;;4.43;2.05;;;;;;;;;;5011975;28;20195;-64
2023/06/19 04:52:59;;;;;;;3.90;1.80;;;;;;;;;;5013129;28;20049;-66
2023/06/19 04:55:26;;;;;;;4.28;2.15;;;;;;;;;;5007370;28;20049;-66
2023/06/19 04:57:54;;;;;;;2.35;1.52;;;;;;;;;;5017552;28;20151;-66
2023/06/19 05:00:23;;;;;;;3.53;1.70;;;;;;;;;;5000909;28;20050;-64
2023/06/19 05:02:49;;;;;;;;;;;;;;;;;;5013641;28;20145;-64
2023/06/19 05:05:16;;;;;;;4.65;2.30;;;;;;;;;;5004318;28;19931;-67
2023/06/19 05:07:45;;;;;;;4.95;2.15;;;;;;;;;;5013362;28;20163;-65
2023/06/19 05:10:11;;;;;;;6.35;2.65;;;;;;;;;;4996929;28;20089;-64
2023/06/19 05:12:38;;;;;;;3.35;1.75;;;;;;;;;;5013506;28;20081;-67
2023/06/19 05:15:08;;;;;;;7.80;3.83;;;;;;;;;;5004236;28;20180;-67
2023/06/19 05:17:35;;;;;;;5.93;3.08;;;;;;;;;;5012079;28;20057;-64
2023/06/19 05:20:01;;;;;;;5.85;2.55;;;;;;;;;;4999036;28;20063;-67
2023/06/19 05:22:31;;;;;;;5.38;2.25;;;;;;;;;;5004699;28;21620;-66
2023/06/19 05:24:58;;;;;;;7.68;3.00;;;;;;;;;;5005349;28;20069;-64
2023/06/19 05:27:24;;;;;;;10.18;2.65;;;;;;;;;;5011711;28;20058;-65
2023/06/19 05:29:50;;;;;;;4.55;2.13;;;;;;;;;;5007329;28;20160;-65
2023/06/19 05:32:18;;;;;;;9.93;2.72;;;;;;;;;;5007178;28;20121;-66
2023/06/19 05:34:45;;;;;;;9.73;4.75;;;;;;;;;;4997325;28;20073;-65
2023/06/19 05:37:11;;;;;;;6.28;3.08;;;;;;;;;;5012053;28;20061;-64
2023/06/19 05:39:38;;;;;;;6.43;2.90;;;;;;;;;;5017418;28;20132;-65
2023/06/19 05:42:05;;;;;;;5.72;2.55;;;;;;;;;;5018453;28;20144;-65
2023/06/19 05:44:31;;;;;;;6.97;3.17;;;;;;;;;;5014747;28;22859;-65
2023/06/19 05:46:57;;;;;;;9.32;3.88;;;;;;;;;;5021927;28;20045;-65
2023/06/19 05:49:25;;;;;;;9.77;4.70;;;;;;;;;;5016460;28;20234;-66
2023/06/19 05:51:52;;;;;;;8.80;3.63;;;;;;;;;;5013549;28;20195;-65
2023/06/19 05:54:18;;;;;;;7.85;4.05;;;;;;;;;;5000946;28;20124;-65
2023/06/19 05:56:45;;;;;;;4.85;2.10;;;;;;;;;;4990613;28;20058;-65
2023/06/19 05:59:14;;;;;;;5.70;2.67;;;;;;;;;;4998655;28;20065;-65
2023/06/19 06:01:40;;;;;;;7.50;3.15;;;;;;;;;;4995904;28;20129;-65
2023/06/19 06:04:07;;;;;;;6.75;3.10;;;;;;;;;;4989713;28;20156;-65
2023/06/19 06:06:34;;;;;;;5.45;2.58;;;;;;;;;;5012561;28;20056;-66
2023/06/19 06:09:01;;;;;;;6.90;2.42;;;;;;;;;;5030599;28;20134;-67
2023/06/19 06:11:27;;;;;;;8.25;3.47;;;;;;;;;;5048833;28;20068;-68
2023/06/19 06:13:54;;;;;;;6.32;2.95;;;;;;;;;;5019476;28;20053;-66
2023/06/19 06:16:20;;;;;;;7.85;2.80;;;;;;;;;;5009211;28;20100;-66
2023/06/19 06:18:47;;;;;;;4.97;2.15;;;;;;;;;;5039230;28;20065;-65
2023/06/19 06:21:13;;;;;;;5.00;2.50;;;;;;;;;;5019858;28;20056;-66
2023/06/19 06:23:44;;;;;;;5.68;2.42;;;;;;;;;;5033149;28;20076;-66
2023/06/19 06:26:11;;;;;;;9.45;3.90;;;;;;;;;;5035290;28;20053;-66
2023/06/19 06:28:38;;;;;;;5.50;2.78;;;;;;;;;;5021192;28;20064;-66
2023/06/19 06:31:05;;;;;;;6.00;3.30;;;;;;;;;;5038812;28;20053;-66
2023/06/19 06:33:31;;;;;;;4.47;2.42;;;;;;;;;;5016221;28;20075;-65
2023/06/19 06:36:01;;;;;;;5.50;1.83;;;;;;;;;;5029718;28;20065;-65
2023/06/19 06:38:27;;;;;;;5.50;2.33;;;;;;;;;;5012288;28;20068;-65
2023/06/19 06:40:55;;;;;;;4.22;2.17;;;;;;;;;;5020910;28;20061;-66
2023/06/19 06:43:22;;;;;;;3.55;2.00;;;;;;;;;;5026360;28;20068;-67
2023/06/19 06:45:49;;;;;;;5.15;2.67;;;;;;;;;;4987431;28;20088;-66
2023/06/19 06:48:16;;;;;;;6.50;3.35;;;;;;;;;;5017494;28;20060;-67
2023/06/19 06:50:43;;;;;;;6.53;2.70;;;;;;;;;;5038746;28;20057;-67
2023/06/19 06:53:09;;;;;;;7.55;3.35;;;;;;;;;;5038370;28;20053;-66
2023/06/19 06:55:36;;;;;;;10.43;5.97;;;;;;;;;;5027839;28;20057;-67
2023/06/19 06:58:05;;;;;;;6.65;2.40;;;;;;;;;;5019566;28;20143;-65
2023/06/19 07:00:31;;;;;;;5.55;2.65;;;;;;;;;;5003219;28;20057;-66
2023/06/19 07:02:59;;;;;;;5.40;2.25;;;;;;;;;;5005371;28;20084;-67
2023/06/19 07:05:25;;;;;;;6.35;2.78;;;;;;;;;;5024876;28;20089;-66
2023/06/19 07:07:52;;;;;;;4.15;2.10;;;;;;;;;;5023349;28;20111;-67
2023/06/19 07:10:18;;;;;;;3.42;1.90;;;;;;;;;;4993238;28;20058;-67
2023/06/19 07:12:45;;;;;;;5.00;2.72;;;;;;;;;;5022588;28;20061;-67
2023/06/19 07:15:13;;;;;;;7.30;2.67;;;;;;;;;;5015861;28;20145;-65
2023/06/19 07:17:39;;;;;;;3.70;1.90;;;;;;;;;;5025816;28;20041;-66
2023/06/19 07:20:07;;;;;;;10.32;4.43;;;;;;;;;;5014417;28;20264;-67
2023/06/19 07:22:33;;;;;;;5.38;2.97;;;;;;;;;;5001961;28;20061;-67
2023/06/19 07:25:00;;;;;;;9.55;5.30;;;;;;;;;;5013106;28;20179;-65
2023/06/19 07:27:27;;;;;;;9.20;4.30;;;;;;;;;;5003880;28;20053;-67
2023/06/19 07:29:53;;;;;;;6.38;3.13;;;;;;;;;;5015709;28;20205;-67
2023/06/19 07:32:21;;;;;;;9.70;3.60;;;;;;;;;;5012408;28;20073;-65
2023/06/19 07:34:51;;;;;;;7.38;4.03;;;;;;;;;;5003478;28;20130;-68
2023/06/19 07:37:18;;;;;;;10.02;4.75;;;;;;;;;;5022208;28;20148;-66
2023/06/19 07:39:44;;;;;;;10.00;3.15;;;;;;;;;;5021849;28;20053;-65
2023/06/19 07:42:11;;;;;;;11.52;3.60;;;;;;;;;;5010694;28;20060;-64
2023/06/19 07:44:37;;;;;;;10.07;4.60;;;;;;;;;;5008810;28;20053;-67
2023/06/19 07:47:04;;;;;;;7.57;3.40;;;;;;;;;;4998858;28;20115;-67
2023/06/19 07:49:35;;;;;;;8.43;3.60;;;;;;;;;;5019387;28;20068;-67
2023/06/19 07:52:01;;;;;;;10.15;5.35;;;;;;;;;;5006664;28;20082;-66
2023/06/19 07:54:31;;;;;;;9.38;4.65;;;;;;;;;;5009003;28;20049;-64
2023/06/19 07:56:59;;;;;;;9.23;4.55;;;;;;;;;;4997443;28;20140;-65
2023/06/19 07:59:26;;;;;;;10.95;5.18;;;;;;;;;;5002854;28;20160;-65
2023/06/19 08:01:52;;;;;;;16.63;6.88;;;;;;;;;;5020641;28;20068;-65
2023/06/19 08:04:19;;;;;;;9.18;4.28;;;;;;;;;;4992849;28;20061;-66
2023/06/19 08:06:47;;;;;;;10.77;3.85;;;;;;;;;;5035554;28;20057;-65
2023/06/19 08:09:13;;;;;;;14.05;6.57;;;;;;;;;;5023141;28;20059;-65
2023/06/19 08:11:40;;;;;;;11.45;6.28;;;;;;;;;;5038319;28;20061;-64
2023/06/19 08:14:06;;;;;;;11.13;5.55;;;;;;;;;;5035413;28;20056;-66
2023/06/19 08:16:33;;;;;;;7.80;4.47;;;;;;;;;;5016462;28;20037;-66
2023/06/19 08:18:59;;;;;;;11.45;4.55;;;;;;;;;;5041932;28;20092;-65
2023/06/19 08:21:25;;;;;;;10.35;5.13;;;;;;;;;;5018765;28;20065;-64
2023/06/19 08:23:54;;;;;;;10.82;6.03;;;;;;;;;;5021163;28;20128;-65
2023/06/19 08:26:21;;;;;;;12.50;5.93;;;;;;;;;;5020176;28;20044;-66
2023/06/19 08:28:47;;;;;;;8.35;4.53;;;;;;;;;;5033532;28;20055;-65
2023/06/19 08:31:14;;;;;;;9.95;5.22;;;;;;;;;;5025927;28;20059;-64
2023/06/19 08:33:40;;;;;;;13.35;7.60;;;;;;;;;;5016525;28;20095;-66
2023/06/19 08:36:07;;;;;;;12.30;5.53;;;;;;;;;;5018601;28;20061;-67
2023/06/19 08:38:33;;;;;;;9.20;5.18;;;;;;;;;;5032874;28;20987;-65
2023/06/19 08:41:01;;;;;;;12.18;7.05;;;;;;;;;;5038848;28;20119;-66
2023/06/19 08:43:27;;;;;;;15.10;6.38;;;;;;;;;;5034445;28;20428;-65
2023/06/19 08:46:00;;;;;;;8.45;4.70;;;;;;;;;;5017965;28;20065;-66
2023/06/19 08:48:27;;;;;;;10.52;4.80;;;;;;;;;;5016843;28;20152;-67
2023/06/19 08:50:53;;;;;;;12.52;6.30;;;;;;;;;;5040327;28;20161;-66
2023/06/19 08:53:20;;;;;;;10.88;4.90;;;;;;;;;;5034048;28;20122;-69
2023/06/19 08:55:46;;;;;;;9.20;5.05;;;;;;;;;;5035590;28;20065;-66
2023/06/19 08:58:22;;;;;;;9.93;5.28;;;;;;;;;;5031306;28;20049;-67
2023/06/19 09:00:48;;;;;;;12.00;7.07;;;;;;;;;;5020612;28;20119;-67
2023/06/19 09:03:20;;;;;;;10.57;5.80;;;;;;;;;;5034545;28;20067;-67
2023/06/19 09:05:50;;;;;;;13.35;6.80;;;;;;;;;;5036109;28;20171;-66
2023/06/19 09:08:17;;;;;;;14.10;7.38;;;;;;;;;;5026218;28;20053;-67
2023/06/19 09:10:44;;;;;;;10.85;5.95;;;;;;;;;;5040164;28;20152;-67
2023/06/19 09:13:10;;;;;;;15.90;7.28;;;;;;;;;;5000754;28;20064;-68
2023/06/19 09:15:38;;;;;;;15.60;7.00;;;;;;;;;;5032593;28;20065;-68
2023/06/19 09:18:06;;;;;;;14.98;6.80;;;;;;;;;;5029950;28;20069;-68
2023/06/19 09:20:33;;;;;;;8.68;5.10;;;;;;;;;;5034256;28;20063;-67
2023/06/19 09:23:00;;;;;;;13.82;6.45;;;;;;;;;;5001311;28;20116;-66
2023/06/19 09:25:27;;;;;;;9.93;4.85;;;;;;;;;;5000827;28;20103;-66
2023/06/19 09:27:54;;;;;;;10.00;5.32;;;;;;;;;;5020050;28;20052;-66
2023/06/19 09:30:21;;;;;;;13.68;7.78;;;;;;;;;;5026812;28;20144;-68
2023/06/19 09:32:49;;;;;;;10.13;6.05;;;;;;;;;;5019618;28;20060;-66
2023/06/19 09:35:15;;;;;;;12.65;6.60;;;;;;;;;;5027415;28;20067;-66
2023/06/19 09:37:42;;;;;;;13.23;7.25;;;;;;;;;;5037891;28;20053;-66
2023/06/19 09:40:10;;;;;;;16.45;6.65;;;;;;;;;;5020525;28;20150;-68
2023/06/19 09:42:38;;;;;;;12.27;6.95;;;;;;;;;;5039143;28;20065;-66
2023/06/19 09:45:05;;;;;;;18.50;7.90;;;;;;;;;;5031464;28;20140;-67
2023/06/19 09:47:32;;;;;;;9.30;5.00;;;;;;;;;;5037101;28;20136;-66
2023/06/19 09:50:02;;;;;;;12.32;7.18;;;;;;;;;;5031941;28;20049;-65
2023/06/19 09:52:28;;;;;;;12.52;6.30;;;;;;;;;;5014335;28;20072;-64
2023/06/19 09:54:55;;;;;;;12.65;5.82;;;;;;;;;;5035538;28;20064;-64
2023/06/19 09:57:22;;;;;;;14.57;7.07;;;;;;;;;;5016694;28;20063;-66
2023/06/19 09:59:50;;;;;;;12.80;7.63;;;;;;;;;;5019021;28;20052;-66
2023/06/19 10:02:17;;;;;;;18.67;7.80;;;;;;;;;;5026758;28;20210;-65
2023/06/19 10:04:45;;;;;;;12.10;6.97;;;;;;;;;;5016041;28;20220;-64
2023/06/19 10:07:20;;;;;;;19.83;7.70;;;;;;;;;;5034295;28;20049;-68
2023/06/19 10:09:57;;;;;;;9.52;5.70;;;;;;;;;;5048625;28;20148;-68
2023/06/19 10:12:34;;;;;;;13.48;6.68;;;;;;;;;;5031129;28;20065;-65
2023/06/19 10:15:08;;;;;;;21.75;8.25;;;;;;;;;;5026499;28;20067;-64
2023/06/19 10:17:35;;;;;;;14.43;5.47;;;;;;;;;;5015869;28;20067;-67
2023/06/19 10:20:03;;;;;;;15.57;8.35;;;;;;;;;;4996235;28;20058;-66
2023/06/19 10:22:32;;;;;;;12.80;5.85;;;;;;;;;;5026332;28;20075;-64
2023/06/19 10:24:58;;;;;;;8.93;4.95;;;;;;;;;;5016215;28;20052;-64
2023/06/19 10:27:26;;;;;;;13.18;7.38;;;;;;;;;;5036928;28;20095;-66
2023/06/19 10:29:53;;;;;;;14.07;8.23;;;;;;;;;;5022703;28;20116;-67
2023/06/19 10:32:19;;;;;;;11.85;7.18;;;;;;;;;;5030826;28;20065;-65
2023/06/19 10:34:46;;;;;;;10.98;5.10;;;;;;;;;;5024906;28;20057;-65
2023/06/19 10:37:13;;;;;;;9.25;4.45;;;;;;;;;;5017972;28;20056;-66
2023/06/19 10:39:41;;;;;;;14.10;7.40;;;;;;;;;;5040988;28;20067;-65
2023/06/19 10:42:08;;;;;;;12.63;6.40;;;;;;;;;;5030069;28;20088;-66
2023/06/19 10:44:34;;;;;;;14.23;7.13;;;;;;;;;;5038146;28;20068;-65
2023/06/19 10:47:01;;;;;;;16.98;8.00;;;;;;;;;;5039114;28;20057;-68
2023/06/19 10:49:28;;;;;;;10.15;5.55;;;;;;;;;;5041817;28;20064;-67
2023/06/19 10:51:58;;;;;;;12.77;7.25;;;;;;;;;;5022740;28;20281;-65
2023/06/19 10:54:25;;;;;;;12.27;5.25;;;;;;;;;;5025361;28;20056;-64
2023/06/19 10:56:54;;;;;;;10.88;6.07;;;;;;;;;;5021648;28;20114;-65
2023/06/19 10:59:20;;;;;;;11.85;5.95;;;;;;;;;;5038357;28;20065;-65
2023/06/19 11:01:47;;;;;;;10.95;5.72;;;;;;;;;;5045499;28;20144;-65
2023/06/19 11:04:14;;;;;;;11.98;5.20;;;;;;;;;;5030420;28;20127;-65
2023/06/19 11:06:43;;;;;;;12.50;6.20;;;;;;;;;;5037737;28;20084;-68
2023/06/19 11:09:10;;;;;;;11.50;6.03;;;;;;;;;;5036649;28;20053;-65
2023/06/19 11:11:37;;;;;;;10.32;5.25;;;;;;;;;;5039449;28;20060;-65
2023/06/19 11:14:06;;;;;;;10.93;6.40;;;;;;;;;;5033271;28;20076;-67
2023/06/19 11:16:33;;;;;;;10.10;5.70;;;;;;;;;;4997173;28;20114;-66
2023/06/19 11:18:59;;;;;;;11.15;5.60;;;;;;;;;;5018184;28;20044;-66
2023/06/19 11:21:30;;;;;;;15.40;7.00;;;;;;;;;;5022192;28;20120;-67
2023/06/19 11:23:58;;;;;;;9.73;4.72;;;;;;;;;;5037174;28;20064;-66
2023/06/19 11:26:25;;;;;;;15.25;8.77;;;;;;;;;;5029630;28;20061;-69
2023/06/19 11:28:54;;;;;;;16.25;5.47;;;;;;;;;;5036271;28;20053;-67
2023/06/19 11:31:27;;;;;;;10.15;5.38;;;;;;;;;;5021807;28;20076;-67
2023/06/19 11:33:59;;;;;;;12.98;7.07;;;;;;;;;;5036280;28;20132;-68
2023/06/19 11:36:25;;;;;;;12.13;5.95;;;;;;;;;;5011721;28;22103;-65
2023/06/19 11:38:52;;;;;;;10.98;5.57;;;;;;;;;;5018695;28;20147;-66
2023/06/19 11:41:26;;;;;;;15.48;6.32;;;;;;;;;;5017899;28;20056;-66
2023/06/19 11:43:59;;;;;;;11.70;5.88;;;;;;;;;;5037380;28;20063;-64
2023/06/19 11:46:30;;;;;;;16.52;7.15;;;;;;;;;;5032744;28;20077;-64
2023/06/19 11:48:57;;;;;;;8.40;4.95;;;;;;;;;;5020949;28;20115;-66
2023/06/19 11:51:23;;;;;;;10.85;6.20;;;;;;;;;;5035500;28;20099;-67
2023/06/19 11:53:50;;;;;;;11.32;5.97;;;;;;;;;;5039174;28;20061;-66
2023/06/19 11:56:16;;;;;;;8.95;4.82;;;;;;;;;;5001676;28;20080;-65
2023/06/19 11:58:44;;;;;;;10.30;4.88;;;;;;;;;;5038093;28;20141;-65
2023/06/19 12:01:11;;;;;;;9.20;5.47;;;;;;;;;;5038447;28;20072;-65
2023/06/19 12:03:40;;;;;;;8.52;4.57;;;;;;;;;;5021649;28;20053;-67
2023/06/19 12:06:06;;;;;;;9.40;4.78;;;;;;;;;;5000587;28;20075;-65
2023/06/19 12:08:33;;;;;;;10.15;4.97;;;;;;;;;;5021348;28;20063;-65
2023/06/19 12:10:59;;;;;;;11.13;6.10;;;;;;;;;;5017935;28;20072;-65
2023/06/19 12:13:26;;;;;;;7.68;3.67;;;;;;;;;;5003408;28;20053;-66
2023/06/19 12:15:52;;;;;;;10.70;5.88;;;;;;;;;;5007022;28;20060;-65
2023/06/19 12:18:19;;;;;;;12.68;6.80;;;;;;;;;;5031162;28;20161;-67
2023/06/19 12:20:46;;;;;;;13.60;6.32;;;;;;;;;;5018549;28;20071;-67
2023/06/19 12:23:13;;;;;;;10.50;5.75;;;;;;;;;;5037391;28;20061;-67
2023/06/19 12:25:39;;;;;;;10.48;5.07;;;;;;;;;;5013600;28;20131;-66
2023/06/19 12:28:08;;;;;;;12.55;6.13;;;;;;;;;;5007585;28;20080;-67
2023/06/19 12:30:34;;;;;;;7.18;3.63;;;;;;;;;;5024714;28;20049;-67
2023/06/19 12:33:03;;;;;;;13.20;7.05;;;;;;;;;;5017784;28;20052;-67
2023/06/19 12:35:29;;;;;;;10.82;5.75;;;;;;;;;;5020167;28;20060;-66
2023/06/19 12:37:57;;;;;;;9.13;4.35;;;;;;;;;;5036344;28;20061;-67
2023/06/19 12:40:23;;;;;;;10.20;4.35;;;;;;;;;;5031815;28;20061;-67
2023/06/19 12:42:50;;;;;;;11.57;4.50;;;;;;;;;;5017431;28;20118;-67
2023/06/19 12:45:16;;;;;;;11.30;7.22;;;;;;;;;;5036780;28;20134;-65
2023/06/19 12:47:43;;;;;;;10.88;5.65;;;;;;;;;;5037183;28;20083;-66
2023/06/19 12:50:11;;;;;;;7.45;3.58;;;;;;;;;;5013355;28;20063;-66
2023/06/19 12:52:37;;;;;;;;;;;;;;;;;;5036311;28;20138;-66
2023/06/19 12:55:10;;;;;;;8.23;3.88;;;;;;;;;;5017666;28;19925;-66
2023/06/19 12:57:37;;;;;;;9.38;4.57;;;;;;;;;;5036095;28;20114;-66
2023/06/19 13:00:08;;;;;;;6.88;3.63;;;;;;;;;;5039370;28;20048;-66
2023/06/19 13:02:35;;;;;;;6.78;3.45;;;;;;;;;;5034409;28;20065;-67
2023/06/19 13:05:01;;;;;;;7.50;3.80;;;;;;;;;;5008750;28;20145;-66
2023/06/19 13:07:28;;;;;;;9.57;3.42;;;;;;;;;;5035823;28;20061;-68
2023/06/19 13:09:54;;;;;;;6.05;3.47;;;;;;;;;;5021260;28;20159;-69
2023/06/19 13:12:22;;;;;;;8.13;3.65;;;;;;;;;;5027421;28;20075;-66
2023/06/19 13:14:48;;;;;;;;;;;;;;;;;;4983308;28;20144;-67
2023/06/19 13:17:15;;;;;;;6.20;3.72;;;;;;;;;;5020176;28;19948;-67
2023/06/19 13:19:41;;;;;;;9.93;5.40;;;;;;;;;;5016424;28;20083;-67
2023/06/19 13:22:08;;;;;;;5.03;2.92;;;;;;;;;;5031222;28;20099;-69
2023/06/19 13:24:34;;;;;;;12.35;4.35;;;;;;;;;;5000150;28;20056;-67
2023/06/19 13:27:01;;;;;;;7.32;4.13;;;;;;;;;;5038227;28;20060;-67
2023/06/19 13:29:28;;;;;;;8.18;3.97;;;;;;;;;;5015910;28;20151;-67
2023/06/19 13:31:55;;;;;;;;;;;;;;;;;;5038464;28;20151;-67
2023/06/19 13:34:21;;;;;;;10.60;5.78;;;;;;;;;;5026530;28;19950;-67
2023/06/19 13:36:48;;;;;;;9.00;4.55;;;;;;;;;;5034774;28;20056;-68
2023/06/19 13:39:14;;;;;;;8.90;4.95;;;;;;;;;;5033330;28;20060;-67
2023/06/19 13:41:41;;;;;;;10.60;5.07;;;;;;;;;;5037603;28;20057;-67
2023/06/19 13:44:07;;;;;;;10.80;5.82;;;;;;;;;;5027707;28;20092;-69
2023/06/19 13:46:35;;;;;;;10.40;4.90;;;;;;;;;;5026575;28;20161;-67
2023/06/19 13:49:02;;;;;;;9.57;3.95;;;;;;;;;;5019936;28;20053;-67
2023/06/19 13:51:28;;;;;;;16.55;6.00;;;;;;;;;;5037777;28;20085;-67
2023/06/19 13:53:55;;;;;;;8.35;4.15;;;;;;;;;;5035833;28;20135;-67
2023/06/19 13:56:23;;;;;;;8.80;4.53;;;;;;;;;;5023716;28;20126;-66
2023/06/19 13:58:49;;;;;;;7.28;3.33;;;;;;;;;;5038690;28;20157;-67
2023/06/19 14:01:16;;;;;;;10.13;4.10;;;;;;;;;;5015908;28;20061;-67
2023/06/19 14:03:44;;;;;;;12.07;5.72;;;;;;;;;;5037261;28;20166;-67
2023/06/19 14:06:12;;;;;;;12.25;4.88;;;;;;;;;;5016506;28;20060;-69
2023/06/19 14:08:39;;;;;;;;;;;;;;;;;;5034664;28;20061;-67
2023/06/19 14:11:06;;;;;;;11.90;5.63;;;;;;;;;;5027776;28;19931;-67
2023/06/19 14:13:33;;;;;;;8.40;3.78;;;;;;;;;;5038506;28;20095;-67
2023/06/19 14:16:00;;;;;;;6.82;3.90;;;;;;;;;;4983723;28;20360;-67
2023/06/19 14:18:26;;;;;;;10.55;4.65;;;;;;;;;;5031731;28;20048;-67
2023/06/19 14:20:54;;;;;;;10.68;5.13;;;;;;;;;;5033793;28;20065;-67
2023/06/19 14:23:20;;;;;;;;;;;;;;;;;;5039509;28;20061;-67
2023/06/19 14:25:46;;;;;;;8.80;5.30;;;;;;;;;;5013458;28;19921;-67
2023/06/19 14:28:14;;;;;;;8.35;5.20;;;;;;;;;;5016233;28;20115;-67
2023/06/19 14:30:41;;;;;;;9.90;4.53;;;;;;;;;;5019753;28;20049;-67
2023/06/19 14:33:14;;;;;;;8.45;4.03;;;;;;;;;;5035785;28;20076;-68
2023/06/19 14:35:41;;;;;;;9.25;4.05;;;;;;;;;;5008169;28;20190;-67
2023/06/19 14:38:09;;;;;;;11.43;4.57;;;;;;;;;;5024895;28;20063;-68
2023/06/19 14:40:35;;;;;;;8.90;4.13;;;;;;;;;;5017585;28;20068;-68
2023/06/19 14:43:01;;;;;;;9.20;5.15;;;;;;;;;;5034619;28;20056;-68
2023/06/19 14:45:28;;;;;;;9.07;4.35;;;;;;;;;;5034346;28;20144;-68
2023/06/19 14:47:54;;;;;;;9.10;3.95;;;;;;;;;;5015032;28;20057;-67
2023/06/19 14:50:21;;;;;;;8.68;4.07;;;;;;;;;;5034289;28;20209;-67
2023/06/19 14:52:47;;;;;;;12.18;6.65;;;;;;;;;;5016105;28;20115;-68
2023/06/19 14:55:15;;;;;;;7.68;4.65;;;;;;;;;;5033281;28;20210;-68
2023/06/19 14:57:42;;;;;;;6.20;3.35;;;;;;;;;;5034474;28;20064;-68
2023/06/19 15:00:11;;;;;;;5.93;3.25;;;;;;;;;;5030018;28;20064;-67
2023/06/19 15:02:37;;;;;;;10.02;4.40;;;;;;;;;;5034063;28;20128;-68
2023/06/19 15:05:06;;;;;;;9.20;5.38;;;;;;;;;;5038684;28;20151;-68
2023/06/19 15:07:32;;;;;;;8.80;4.32;;;;;;;;;;5018794;28;20063;-68
2023/06/19 15:09:59;;;;;;;9.75;4.68;;;;;;;;;;5007819;28;20276;-68
2023/06/19 15:12:26;;;;;;;22.63;14.43;;;;;;;;;;5021991;28;20119;-70
2023/06/19 15:14:53;;;;;;;;;;;;;;;;;;5030993;28;20149;-68
2023/06/19 15:17:19;;;;;;;9.32;4.78;;;;;;;;;;5036508;28;19921;-69
2023/06/19 15:19:46;;;;;;;7.80;4.07;;;;;;;;;;5022803;28;20068;-69
2023/06/19 15:22:12;;;;;;;8.40;3.92;;;;;;;;;;5013597;28;20061;-69
2023/06/19 15:24:39;;;;;;;7.35;4.32;;;;;;;;;;5034741;28;20124;-68
2023/06/19 15:27:07;;;;;;;10.65;5.35;;;;;;;;;;5036971;28;20100;-69
2023/06/19 15:29:35;;;;;;;9.52;4.75;;;;;;;;;;5036254;28;20061;-69
2023/06/19 15:32:02;;;;;;;10.75;5.30;;;;;;;;;;5036876;28;20060;-69
2023/06/19 15:34:28;;;;;;;9.50;4.40;;;;;;;;;;5006708;28;20064;-69
2023/06/19 15:36:55;;;;;;;10.05;5.35;;;;;;;;;;5007360;28;20080;-68
2023/06/19 15:39:21;;;;;;;13.95;6.43;;;;;;;;;;5029509;28;20061;-68
2023/06/19 15:41:48;;;;;;;8.90;4.55;;;;;;;;;;5038566;28;20136;-68
2023/06/19 15:44:14;;;;;;;11.07;5.13;;;;;;;;;;5005408;28;20148;-69
2023/06/19 15:46:42;;;;;;;6.75;3.50;;;;;;;;;;5004842;28;20053;-68
2023/06/19 15:49:08;;;;;;;9.88;5.15;;;;;;;;;;5013189;28;20068;-68
2023/06/19 15:51:35;;;;;;;6.55;3.67;;;;;;;;;;5038472;28;20088;-68
2023/06/19 15:54:02;;;;;;;10.60;3.90;;;;;;;;;;5034309;28;20057;-68
2023/06/19 15:56:29;;;;;;;5.60;3.08;;;;;;;;;;5024069;28;20049;-68
2023/06/19 15:58:56;;;;;;;10.70;5.43;;;;;;;;;;5020286;28;20051;-67
2023/06/19 16:01:23;;;;;;;6.75;3.63;;;;;;;;;;5018548;28;20053;-67
2023/06/19 16:03:50;;;;;;;10.90;4.47;;;;;;;;;;5025676;28;20052;-67
2023/06/19 16:06:17;;;;;;;;;;;;;;;;;;5008104;28;20072;-68
2023/06/19 16:08:44;;;;;;;9.77;4.85;;;;;;;;;;5018014;28;19927;-69
2023/06/19 16:11:11;;;;;;;8.27;3.58;;;;;;;;;;5034371;28;20140;-68
2023/06/19 16:13:37;;;;;;;7.18;3.58;;;;;;;;;;5026438;28;20148;-67
2023/06/19 16:16:04;;;;;;;8.85;4.68;;;;;;;;;;5016260;28;20136;-68
2023/06/19 16:18:31;;;;;;;11.50;6.07;;;;;;;;;;5007687;28;20049;-68
2023/06/19 16:20:59;;;;;;;9.15;4.53;;;;;;;;;;5028015;28;20109;-68
2023/06/19 16:23:25;;;;;;;9.02;5.25;;;;;;;;;;5037951;28;20145;-68
2023/06/19 16:25:52;;;;;;;10.73;5.03;;;;;;;;;;5012586;28;20068;-67
2023/06/19 16:28:18;;;;;;;10.15;4.55;;;;;;;;;;5020051;28;20103;-68
2023/06/19 16:30:46;;;;;;;9.65;4.63;;;;;;;;;;5035189;28;20067;-67
2023/06/19 16:33:13;;;;;;;9.35;5.05;;;;;;;;;;5026029;28;20048;-67
2023/06/19 16:35:42;;;;;;;7.93;3.65;;;;;;;;;;5024515;28;20044;-70
2023/06/19 16:38:11;;;;;;;11.07;6.28;;;;;;;;;;5011692;28;20113;-68
2023/06/19 16:40:38;;;;;;;38.45;23.13;;;;;;;;;;5025388;28;20080;-68
2023/06/19 16:43:04;;;;;;;10.88;6.38;;;;;;;;;;5034939;28;20128;-68
2023/06/19 16:45:31;;;;;;;5.95;2.90;;;;;;;;;;5007493;28;20133;-69